Fort Nelson Airport
CYYE : now visible

Airfield :











YOU CAN JOIN US ON...

 
LOGIN :

Register | Disclaimer

   EN    FR    IT 

 









Legend :    VFR   Marginal VFR   IFR   Intensive IFR   Very Intensive IFR
Visi :
Ceiling :
>= 8 km
>= 3000ft
5 to 8 km
1000 to 3000 ft
1500m to 5 km
500 to 1000 ft
800 to 1500m
200 to 500 ft
< 800m
< 200 ft
Symbols :   Thunderstorms  Fog  Heavy snow  Heavy precipitations  Wind > 20 kt







- Airport Elevation : 1253 ft
- IATA code : YYE


CYYE - Fort Nelson

CURRENT METAR :
  • 260500Z 28004KT 15SM FEW070 BKN090 11/06 A2999 RMK AC2AC4 SLP168

EXPIRED METARs :
  • 260400Z 26010KT 30SM SCT080 BKN120 13/06 A2998 RMK AC4AC2 SLP165 DENSITY ALT 1300FT
  • 260300Z 27006KT 30SM SCT060 BKN110 BKN210 14/08 A2996 RMK SC4AC1CI2 SLP157 DENSITY ALT 1400FT

TAF TAF CYYE
Valid from the 26 at 01:00 until the 26 at 13:00 UTC


260038Z 2601/2613 24006KT P6SM SCT060 BKN110
TEMPO 2601/2605 P6SM -SHRA BKN060
FM260500 VRB03KT P6SM SCT060 RMK NXT FCST BY 260700Z
No reported NOTAMs for that airfield.



MET'MAP, your aeronautical weather chart ! - Copyright ORBIFLY December 2007 - Disclaimer

ORBIFLY MET'MAP TEAM :

Programming & Development : Alexandra Zaïnal
Concept & Development : Baudouin d'Aumeries
Co-Development & Prog : Marc-Olivier Méhu
Technical & hardware support : Manuel Goepfert

Contact : metmap@orbifly.com




SOURCES & CREDITS :

   NOAA       Earth
Advisory